Longstreet, Louisiana
Current Conditions -  °F | °C
As of 6:56 PM on Wednesday 26 Nov 2014 (Local Time) from KSHV Reporting Station
Few Clouds Few Clouds  
Wind Chill: 57°   Ceiling: Unl
Heat Index: 57°   Visibility: 10mi
Dew Point: 35°   Wind: 9mph
Humidity: 44%   Direction: 290°WNW
Pressure: 30.21"   Gusts: NA
Location:  32.1°N, 93.95°W
Report Text: KSHV 270056Z 29008KT 10SM FEW280 14/02 A3021 RMK AO2 SLP229 T01390017
Loading
Personal Weather Stations






























Interactive Weather Map New forecast layout! Learn more

10-Day Weather Forecast

Advertisements
Track Severe Weather on mobile